createdAt,value
2023-03-22T00:02:04.510Z,5.40
2023-03-22T00:04:31.361Z,5.40
2023-03-22T00:06:58.074Z,5.00
2023-03-22T00:09:24.768Z,4.80
2023-03-22T00:11:51.418Z,4.90
2023-03-22T00:14:18.676Z,5.00
2023-03-22T00:16:46.346Z,4.90
2023-03-22T00:19:13.059Z,4.80
2023-03-22T00:21:39.710Z,5.00
2023-03-22T00:24:06.671Z,5.20
2023-03-22T00:26:33.304Z,4.90
2023-03-22T00:29:00.730Z,5.00
2023-03-22T00:31:27.441Z,4.90
2023-03-22T00:33:54.152Z,4.90
2023-03-22T00:36:20.842Z,4.90
2023-03-22T00:38:47.482Z,4.80
2023-03-22T00:41:17.261Z,4.60
2023-03-22T00:43:44.020Z,4.70
2023-03-22T00:46:11.285Z,4.80
2023-03-22T00:48:38.308Z,4.90
2023-03-22T00:51:05.514Z,4.80
2023-03-22T00:53:36.539Z,4.80
2023-03-22T00:56:04.128Z,4.70
2023-03-22T00:58:30.785Z,4.60
2023-03-22T01:00:57.519Z,4.70
2023-03-22T01:03:24.763Z,4.80
2023-03-22T01:05:52.186Z,4.90
2023-03-22T01:08:18.854Z,4.90
2023-03-22T01:10:46.059Z,4.80
2023-03-22T01:13:12.824Z,4.80
2023-03-22T01:15:39.963Z,4.70
2023-03-22T01:18:07.606Z,4.60
2023-03-22T01:20:34.660Z,4.50
2023-03-22T01:23:01.294Z,4.70
2023-03-22T01:25:28.005Z,4.90
2023-03-22T01:27:54.658Z,4.90
2023-03-22T01:30:21.308Z,4.90
2023-03-22T01:32:47.946Z,4.90
2023-03-22T01:35:14.593Z,5.10
2023-03-22T01:37:41.221Z,5.00
2023-03-22T01:40:08.301Z,4.90
2023-03-22T01:42:35.009Z,4.80
2023-03-22T01:45:13.917Z,4.80
2023-03-22T01:47:42.005Z,4.90
2023-03-22T01:50:08.850Z,4.90
2023-03-22T01:52:36.258Z,4.90
2023-03-22T01:55:04.621Z,4.70
2023-03-22T01:57:33.526Z,4.50
2023-03-22T02:00:00.737Z,4.50
2023-03-22T02:02:30.854Z,4.70
2023-03-22T02:04:58.010Z,4.70
2023-03-22T02:07:27.832Z,4.40
2023-03-22T02:09:54.517Z,4.30
2023-03-22T02:12:33.538Z,4.20
2023-03-22T02:15:00.220Z,4.20
2023-03-22T02:17:27.693Z,4.20
2023-03-22T02:20:11.128Z,4.20
2023-03-22T02:22:39.195Z,4.10
2023-03-22T02:25:24.720Z,4.00
2023-03-22T02:28:10.385Z,4.20
2023-03-22T02:30:56.143Z,4.10
2023-03-22T02:33:46.158Z,3.80
2023-03-22T02:36:30.939Z,3.80
2023-03-22T02:39:06.624Z,3.80
2023-03-22T02:41:48.529Z,3.80
2023-03-22T02:44:21.195Z,3.90
2023-03-22T02:47:02.003Z,4.00
2023-03-22T02:49:33.449Z,3.90
2023-03-22T02:52:03.091Z,3.80
2023-03-22T02:54:38.185Z,3.90
2023-03-22T02:57:08.469Z,4.00
2023-03-22T02:59:37.521Z,3.70
2023-03-22T03:02:04.857Z,3.60
2023-03-22T03:04:33.480Z,3.40
2023-03-22T03:07:05.160Z,3.60
2023-03-22T03:09:33.073Z,3.80
2023-03-22T03:11:59.738Z,3.90
2023-03-22T03:14:31.237Z,3.90
2023-03-22T03:17:00.973Z,3.90
2023-03-22T03:20:09.020Z,4.00
2023-03-22T03:22:51.001Z,4.10
2023-03-22T03:25:29.641Z,3.90
2023-03-22T03:28:10.088Z,3.80
2023-03-22T03:30:45.380Z,3.90
2023-03-22T03:33:16.519Z,3.90
2023-03-22T03:36:12.608Z,4.00
2023-03-22T03:38:41.823Z,3.80
2023-03-22T03:41:10.377Z,3.90
2023-03-22T03:43:37.449Z,4.00
2023-03-22T03:46:04.327Z,3.90
2023-03-22T03:48:32.818Z,3.60
2023-03-22T03:51:00.209Z,3.40
2023-03-22T03:53:27.173Z,3.50
2023-03-22T03:55:53.982Z,3.40
2023-03-22T03:58:20.779Z,3.30
2023-03-22T04:00:47.811Z,3.50
2023-03-22T04:03:14.757Z,3.50
2023-03-22T04:05:41.455Z,3.30
2023-03-22T04:08:08.614Z,3.40
2023-03-22T04:10:35.753Z,3.40
2023-03-22T04:13:02.441Z,3.60
2023-03-22T04:15:29.204Z,3.70
2023-03-22T04:17:55.837Z,3.70
2023-03-22T04:20:22.496Z,3.60
2023-03-22T04:22:49.180Z,3.60
2023-03-22T04:25:17.976Z,3.60
2023-03-22T04:27:45.447Z,3.60
2023-03-22T04:30:18.755Z,3.70
2023-03-22T04:32:47.321Z,3.80
2023-03-22T04:35:14.409Z,3.90
2023-03-22T04:37:43.167Z,3.80
2023-03-22T04:40:17.255Z,3.80
2023-03-22T04:42:44.393Z,3.90
2023-03-22T04:45:12.023Z,4.10
2023-03-22T04:47:38.737Z,4.20
2023-03-22T04:50:06.349Z,4.20
2023-03-22T04:52:33.118Z,4.10
2023-03-22T04:54:59.821Z,4.20
2023-03-22T04:57:26.745Z,4.30
2023-03-22T04:59:53.401Z,4.30
2023-03-22T05:02:20.183Z,4.30
2023-03-22T05:04:46.935Z,4.40
2023-03-22T05:07:13.644Z,4.60
2023-03-22T05:09:40.337Z,4.80
2023-03-22T05:12:07.131Z,4.80
2023-03-22T05:14:33.840Z,4.50
2023-03-22T05:17:00.519Z,4.50
2023-03-22T05:19:27.606Z,4.50
2023-03-22T05:21:58.513Z,4.60
2023-03-22T05:24:25.307Z,4.70
2023-03-22T05:26:53.868Z,4.80
2023-03-22T05:29:21.463Z,4.90
2023-03-22T05:31:48.378Z,4.90
2023-03-22T05:34:15.087Z,5.00
2023-03-22T05:36:41.817Z,5.10
2023-03-22T05:39:09.188Z,5.00
2023-03-22T05:41:36.876Z,5.00
2023-03-22T05:44:04.376Z,5.00
2023-03-22T05:46:31.177Z,5.00
2023-03-22T05:48:57.865Z,5.10
2023-03-22T05:51:25.795Z,5.20
2023-03-22T05:53:53.569Z,5.30
2023-03-22T05:56:25.809Z,5.50
2023-03-22T05:58:52.500Z,5.50
2023-03-22T06:01:21.401Z,5.50
2023-03-22T06:03:48.774Z,5.60
2023-03-22T06:06:15.851Z,5.90
2023-03-22T06:08:42.903Z,6.00
2023-03-22T06:11:09.842Z,6.00
2023-03-22T06:13:37.445Z,6.00
2023-03-22T06:16:04.680Z,6.10
2023-03-22T06:18:31.417Z,6.20
2023-03-22T06:20:58.066Z,6.30
2023-03-22T06:23:24.745Z,6.40
2023-03-22T06:25:51.389Z,6.40
2023-03-22T06:28:18.027Z,6.50
2023-03-22T06:30:44.684Z,6.60
2023-03-22T06:33:12.542Z,6.60
2023-03-22T06:35:39.265Z,6.70
2023-03-22T06:38:06.154Z,6.70
2023-03-22T06:40:32.832Z,6.80
2023-03-22T06:43:03.533Z,6.90
2023-03-22T06:45:33.451Z,7.10
2023-03-22T06:48:00.833Z,7.10
2023-03-22T06:50:28.375Z,7.30
2023-03-22T06:52:55.179Z,7.50
2023-03-22T06:55:22.265Z,7.60
2023-03-22T06:57:48.974Z,7.70
2023-03-22T07:00:16.035Z,7.80
2023-03-22T07:02:42.836Z,7.90
2023-03-22T07:05:09.523Z,8.10
2023-03-22T07:07:37.240Z,8.20
2023-03-22T07:10:24.014Z,8.30
2023-03-22T07:12:50.758Z,8.40
2023-03-22T07:15:17.652Z,8.60
2023-03-22T07:17:44.314Z,8.70
2023-03-22T07:20:11.210Z,8.80
2023-03-22T07:22:37.907Z,8.80
2023-03-22T07:25:04.757Z,8.90
2023-03-22T07:27:31.515Z,9.00
2023-03-22T07:29:58.148Z,9.10
2023-03-22T07:32:24.892Z,9.30
2023-03-22T07:34:51.618Z,9.40
2023-03-22T07:37:18.242Z,9.50
2023-03-22T07:39:45.087Z,9.50
2023-03-22T07:42:11.806Z,9.60
2023-03-22T07:44:38.515Z,9.70
2023-03-22T07:47:05.464Z,9.80
2023-03-22T07:49:32.359Z,10.00
2023-03-22T07:51:59.100Z,10.10
2023-03-22T07:54:33.397Z,10.20
2023-03-22T07:57:01.387Z,10.30
2023-03-22T07:59:28.264Z,10.40
2023-03-22T08:01:54.999Z,10.60
2023-03-22T08:04:22.531Z,10.60
2023-03-22T08:06:49.837Z,10.60
2023-03-22T08:09:16.884Z,10.70
2023-03-22T08:11:43.561Z,10.80
2023-03-22T08:14:10.235Z,11.00
2023-03-22T08:16:38.399Z,11.10
2023-03-22T08:19:05.246Z,11.20
2023-03-22T08:21:31.893Z,11.30
2023-03-22T08:23:58.584Z,11.40
2023-03-22T08:26:25.525Z,11.50
2023-03-22T08:28:52.196Z,11.50
2023-03-22T08:31:20.094Z,11.60
2023-03-22T08:33:47.159Z,11.70
2023-03-22T08:36:15.109Z,11.80
2023-03-22T08:38:42.948Z,11.80
2023-03-22T08:41:09.570Z,11.80
2023-03-22T08:43:36.196Z,11.90
2023-03-22T08:46:02.973Z,12.10
2023-03-22T08:48:30.776Z,12.20
2023-03-22T08:50:58.081Z,12.30
2023-03-22T08:53:24.780Z,12.30
2023-03-22T08:55:51.434Z,12.30
2023-03-22T08:58:20.018Z,12.40
2023-03-22T09:00:49.487Z,12.40
2023-03-22T09:03:16.792Z,12.60
2023-03-22T09:05:43.756Z,12.70
2023-03-22T09:08:18.170Z,12.80
2023-03-22T09:10:48.010Z,12.70
2023-03-22T09:13:16.790Z,12.80
2023-03-22T09:15:44.920Z,13.20
2023-03-22T09:18:12.323Z,13.20
2023-03-22T09:20:39.498Z,13.10
2023-03-22T09:23:06.581Z,13.20
2023-03-22T09:25:33.259Z,13.20
2023-03-22T09:27:59.895Z,13.30
2023-03-22T09:30:27.268Z,13.30
2023-03-22T09:32:54.062Z,13.70
2023-03-22T09:35:21.083Z,14.20
2023-03-22T09:37:49.379Z,14.30
2023-03-22T09:40:17.738Z,14.20
2023-03-22T09:42:51.561Z,14.30
2023-03-22T09:45:25.260Z,14.60
2023-03-22T09:47:54.420Z,14.60
2023-03-22T09:50:43.897Z,14.70
2023-03-22T09:53:13.754Z,14.90
2023-03-22T09:55:46.088Z,15.20
2023-03-22T09:58:25.888Z,15.20
2023-03-22T10:00:57.096Z,15.20
2023-03-22T10:03:50.320Z,15.50
2023-03-22T10:06:34.956Z,15.70
2023-03-22T10:09:04.765Z,15.90
2023-03-22T10:11:49.356Z,16.10
2023-03-22T10:14:18.995Z,16.30
2023-03-22T10:16:45.963Z,16.30
2023-03-22T10:19:19.770Z,16.10
2023-03-22T10:21:47.719Z,16.20
2023-03-22T10:24:20.396Z,16.40
2023-03-22T10:26:47.894Z,16.10
2023-03-22T10:29:23.847Z,16.50
2023-03-22T10:31:50.712Z,16.80
2023-03-22T10:34:22.281Z,16.70
2023-03-22T10:36:50.889Z,16.80
2023-03-22T10:39:37.158Z,16.90
2023-03-22T10:42:11.621Z,16.30
2023-03-22T10:44:49.145Z,16.60
2023-03-22T10:47:18.291Z,16.70
2023-03-22T10:49:53.101Z,16.60
2023-03-22T10:52:32.651Z,16.80
2023-03-22T10:55:03.076Z,17.00
2023-03-22T10:57:31.047Z,17.20
2023-03-22T10:59:57.851Z,17.40
2023-03-22T11:02:24.632Z,17.20
2023-03-22T11:04:52.791Z,17.20
2023-03-22T11:07:36.261Z,17.00
2023-03-22T11:10:09.036Z,17.20
2023-03-22T11:12:39.946Z,17.30
2023-03-22T11:15:07.355Z,17.40
2023-03-22T11:17:37.620Z,17.00
2023-03-22T11:20:09.876Z,17.00
2023-03-22T11:22:41.270Z,17.40
2023-03-22T11:25:27.833Z,17.60
2023-03-22T11:28:05.913Z,17.90
2023-03-22T11:30:33.319Z,17.90
2023-03-22T11:33:15.164Z,17.60
2023-03-22T11:35:43.944Z,17.50
2023-03-22T11:38:22.447Z,17.90
2023-03-22T11:40:53.740Z,17.90
2023-03-22T11:43:22.355Z,18.00
2023-03-22T11:45:50.172Z,18.20
2023-03-22T11:48:24.621Z,18.40
2023-03-22T11:50:55.721Z,18.60
2023-03-22T11:53:25.649Z,18.30
2023-03-22T11:55:54.205Z,18.40
2023-03-22T11:58:28.277Z,18.50
2023-03-22T12:00:56.950Z,18.60
2023-03-22T12:03:26.142Z,18.60
2023-03-22T12:05:53.018Z,19.00
2023-03-22T12:08:34.782Z,18.90
2023-03-22T12:11:06.147Z,18.50
2023-03-22T12:13:38.585Z,18.00
2023-03-22T12:16:06.342Z,17.50
2023-03-22T12:19:05.897Z,17.90
2023-03-22T12:21:33.734Z,17.70
2023-03-22T12:24:02.569Z,17.60
2023-03-22T12:26:30.350Z,17.80
2023-03-22T12:29:00.450Z,18.10
2023-03-22T12:31:38.816Z,18.30
2023-03-22T12:34:26.141Z,18.40
2023-03-22T12:36:54.742Z,18.30
2023-03-22T12:39:26.937Z,19.00
2023-03-22T12:41:55.845Z,19.30
2023-03-22T12:44:25.596Z,18.80
2023-03-22T12:47:02.857Z,18.80
2023-03-22T12:49:37.733Z,19.30
2023-03-22T12:52:26.410Z,19.20
2023-03-22T12:54:59.272Z,19.20
2023-03-22T12:57:26.152Z,18.90
2023-03-22T12:59:55.510Z,18.90
2023-03-22T13:02:31.252Z,18.50
2023-03-22T13:04:59.049Z,18.80
2023-03-22T13:07:31.786Z,19.60
2023-03-22T13:10:01.651Z,19.80
2023-03-22T13:12:30.263Z,19.90
2023-03-22T13:14:58.418Z,20.10
2023-03-22T13:17:25.488Z,20.20
2023-03-22T13:19:59.611Z,20.10
2023-03-22T13:22:26.246Z,19.90
2023-03-22T13:25:00.864Z,19.70
2023-03-22T13:27:35.571Z,19.70
2023-03-22T13:30:04.762Z,19.80
2023-03-22T13:32:33.736Z,18.70
2023-03-22T13:35:00.856Z,18.30
2023-03-22T13:37:35.749Z,18.50
2023-03-22T13:40:11.926Z,19.10
2023-03-22T13:42:39.906Z,19.70
2023-03-22T13:45:27.457Z,19.50
2023-03-22T13:48:06.430Z,19.50
2023-03-22T13:50:33.792Z,19.70
2023-03-22T13:53:07.946Z,19.70
2023-03-22T13:55:36.823Z,19.40
2023-03-22T13:58:05.868Z,19.70
2023-03-22T14:00:32.506Z,19.80
2023-03-22T14:03:05.887Z,19.50
2023-03-22T14:05:36.320Z,19.10
2023-03-22T14:08:04.323Z,19.60
2023-03-22T14:10:43.697Z,20.10
2023-03-22T14:13:26.039Z,20.40
2023-03-22T14:15:58.278Z,20.40
2023-03-22T14:18:32.349Z,19.50
2023-03-22T14:21:11.714Z,19.70
